Time;durP1;ratioP1;P1;durP2;ratioP2;P2;SDS_P1;SDS_P2;PMS_P1;PMS_P2;Temp;Humidity;BMP_temperature;BMP_pressure;BME280_temperature;BME280_humidity;BME280_pressure;Samples;Min_cycle;Max_cycle;Signal;HPM_P1;HPM_P2
2023/07/07 00:00:48;;;;;;;5.28;2.60;;;;;;;14.96;81.85;101653.53;4990267;28;20045;-71
2023/07/07 00:03:13;;;;;;;5.00;3.03;;;;;;;14.94;81.84;101645.06;5002581;28;20033;-73
2023/07/07 00:05:42;;;;;;;5.53;2.35;;;;;;;14.86;82.19;101640.66;4997529;28;20046;-69
2023/07/07 00:08:08;;;;;;;5.15;2.40;;;;;;;14.76;82.46;101645.22;5000715;28;20114;-70
2023/07/07 00:10:33;;;;;;;4.75;2.83;;;;;;;14.66;82.80;101647.97;5003101;28;20058;-73
2023/07/07 00:12:59;;;;;;;4.95;2.60;;;;;;;14.67;82.77;101646.97;5000327;28;20028;-72
2023/07/07 00:15:25;;;;;;;5.45;2.78;;;;;;;14.71;82.70;101650.09;4999086;28;20058;-73
2023/07/07 00:17:50;;;;;;;3.88;2.50;;;;;;;14.74;82.96;101652.38;5002352;28;20648;-72
2023/07/07 00:20:16;;;;;;;5.38;2.40;;;;;;;14.74;82.27;101655.81;4998663;28;20057;-73
2023/07/07 00:22:42;;;;;;;9.75;2.80;;;;;;;14.66;82.46;101647.16;5003814;28;20073;-73
2023/07/07 00:25:09;;;;;;;9.40;2.80;;;;;;;14.59;82.55;101647.00;5001436;28;20283;-71
2023/07/07 00:27:34;;;;;;;4.22;2.22;;;;;;;14.52;82.86;101646.81;5001335;28;20037;-73
2023/07/07 00:30:02;;;;;;;4.45;2.42;;;;;;;14.49;83.07;101646.31;5000918;28;20042;-70
2023/07/07 00:32:29;;;;;;;7.10;2.72;;;;;;;14.43;83.46;101646.94;5012604;28;20041;-73
2023/07/07 00:34:54;;;;;;;4.03;2.10;;;;;;;14.41;83.58;101649.72;5005247;28;20128;-73
2023/07/07 00:37:20;;;;;;;4.82;2.80;;;;;;;14.47;83.28;101648.25;4990985;28;20088;-73
2023/07/07 00:39:45;;;;;;;4.57;2.53;;;;;;;14.46;83.06;101657.88;5001821;28;20096;-71
2023/07/07 00:42:11;;;;;;;6.25;2.97;;;;;;;14.36;83.32;101649.38;5005576;28;20049;-73
2023/07/07 00:45:04;;;;;;;3.83;2.55;;;;;;;14.18;83.95;101647.72;5004951;28;20058;-73
2023/07/07 00:47:31;;;;;;;6.07;2.53;;;;;;;14.07;84.37;101650.63;5003148;28;20037;-71
2023/07/07 00:49:56;;;;;;;6.10;2.63;;;;;;;14.00;85.03;101654.81;4988496;28;20046;-73
2023/07/07 00:52:23;;;;;;;8.70;3.40;;;;;;;13.93;85.62;101653.81;5007871;28;20034;-72
2023/07/07 00:54:48;;;;;;;4.57;2.60;;;;;;;13.86;86.15;101651.00;5021076;28;20048;-72
2023/07/07 00:57:14;;;;;;;5.45;2.22;;;;;;;13.80;86.65;101655.06;5003307;28;20041;-73
2023/07/07 00:59:45;;;;;;;3.80;2.20;;;;;;;13.77;86.95;101651.97;5002749;28;20074;-73
2023/07/07 01:02:15;;;;;;;4.75;2.50;;;;;;;13.82;87.18;101649.69;4988971;28;20034;-73
2023/07/07 01:04:44;;;;;;;10.18;2.65;;;;;;;13.90;86.48;101651.50;5006174;28;20042;-72
2023/07/07 01:07:14;;;;;;;6.80;2.50;;;;;;;13.91;86.34;101647.94;5007993;28;20056;-73
2023/07/07 01:09:39;;;;;;;6.78;2.78;;;;;;;13.88;86.16;101650.84;5003086;28;20050;-73
2023/07/07 01:12:10;;;;;;;4.70;2.22;;;;;;;13.87;86.39;101644.84;5005487;28;20048;-70
2023/07/07 01:14:36;;;;;;;4.38;2.58;;;;;;;13.85;86.24;101649.38;5017972;28;20048;-72
2023/07/07 01:17:30;;;;;;;4.68;2.42;;;;;;;13.76;86.40;101655.53;5008113;28;20037;-73
2023/07/07 01:20:09;;;;;;;4.35;2.70;;;;;;;13.68;86.83;101658.13;5004814;28;20559;-73
2023/07/07 01:22:59;;;;;;;5.38;2.63;;;;;;;13.59;87.16;101657.25;5003440;28;20030;-74
2023/07/07 01:25:40;;;;;;;4.82;2.20;;;;;;;13.50;87.46;101655.56;4985096;28;20123;-71
2023/07/07 01:28:20;;;;;;;6.18;2.45;;;;;;;13.49;87.74;101649.53;5007514;28;20034;-72
2023/07/07 01:31:13;;;;;;;6.30;3.08;;;;;;;13.48;87.81;101647.91;5010804;28;20069;-73
2023/07/07 01:33:40;;;;;;;4.40;2.40;;;;;;;13.47;87.69;101648.03;5008202;28;20045;-73
2023/07/07 01:36:06;;;;;;;4.90;2.75;;;;;;;13.44;87.96;101651.78;5004903;28;20571;-73
2023/07/07 01:38:39;;;;;;;5.80;2.70;;;;;;;13.44;88.06;101649.19;4991713;28;20033;-71
2023/07/07 01:41:33;;;;;;;4.30;2.80;;;;;;;13.43;88.00;101650.97;4995015;28;20044;-73
2023/07/07 01:44:03;;;;;;;7.30;3.13;;;;;;;13.40;88.04;101659.09;5005735;28;20042;-73
2023/07/07 01:46:40;;;;;;;4.72;3.10;;;;;;;13.37;88.03;101655.97;5007468;28;20030;-73
2023/07/07 01:49:23;;;;;;;5.53;2.78;;;;;;;13.36;88.20;101655.16;5003690;28;20045;-73
2023/07/07 01:51:53;;;;;;;;;;;;;;;13.34;88.02;101657.09;4994119;28;20038;-72
2023/07/07 01:54:21;;;;;;;8.13;2.40;;;;;;;13.30;88.17;101645.38;5005352;28;19956;-71
2023/07/07 01:56:48;;;;;;;4.65;2.80;;;;;;;13.27;88.44;101653.44;5009735;28;20058;-73
2023/07/07 01:59:15;;;;;;;4.55;2.55;;;;;;;13.31;88.50;101653.97;4990297;28;20386;-71
2023/07/07 02:01:42;;;;;;;3.38;2.30;;;;;;;13.34;88.34;101644.09;5006364;28;20037;-73
2023/07/07 02:04:08;;;;;;;4.57;2.33;;;;;;;13.38;88.01;101653.22;5021647;28;20042;-73
2023/07/07 02:06:33;;;;;;;7.20;2.72;;;;;;;13.34;87.90;101654.50;5008152;28;20033;-73
2023/07/07 02:08:58;;;;;;;4.00;2.45;;;;;;;13.33;87.68;101650.25;5008492;28;20523;-72
2023/07/07 02:11:24;;;;;;;4.32;3.03;;;;;;;13.26;88.18;101641.41;4993380;28;20030;-72
2023/07/07 02:13:49;;;;;;;6.00;2.53;;;;;;;13.19;88.42;101648.19;5007169;28;20041;-73
2023/07/07 02:16:15;;;;;;;3.60;2.13;;;;;;;13.18;88.72;101641.34;5010012;28;20026;-72
2023/07/07 02:18:41;;;;;;;5.45;2.55;;;;;;;13.23;88.59;101649.50;4990069;28;20041;-74
2023/07/07 02:21:07;;;;;;;3.65;2.50;;;;;;;13.24;88.19;101646.75;4991840;28;20512;-71
2023/07/07 02:23:34;;;;;;;3.25;2.17;;;;;;;13.21;88.34;101646.25;5007247;28;20081;-72
2023/07/07 02:25:59;;;;;;;5.00;2.35;;;;;;;13.17;88.67;101650.13;4990603;28;20022;-73
2023/07/07 02:28:25;;;;;;;6.05;2.90;;;;;;;13.16;88.82;101649.28;4990963;28;20389;-72
2023/07/07 02:30:52;;;;;;;6.03;2.53;;;;;;;13.15;88.83;101644.25;5006626;28;20096;-72
2023/07/07 02:33:18;;;;;;;5.13;2.60;;;;;;;13.13;88.79;101651.38;5007890;28;20042;-72
2023/07/07 02:35:48;;;;;;;8.57;2.80;;;;;;;13.12;88.85;101653.16;5001708;28;20084;-73
2023/07/07 02:38:14;;;;;;;3.83;2.60;;;;;;;13.13;88.55;101654.81;5002281;28;20757;-72
2023/07/07 02:40:39;;;;;;;5.35;2.30;;;;;;;13.08;88.86;101656.25;5005971;28;20076;-72
2023/07/07 02:43:05;;;;;;;5.68;2.47;;;;;;;12.98;89.15;101664.97;5006117;28;20049;-73
2023/07/07 02:45:30;;;;;;;6.97;2.92;;;;;;;12.90;89.49;101659.66;4987455;28;20068;-70
2023/07/07 02:47:56;;;;;;;5.32;2.45;;;;;;;12.88;89.65;101655.59;5009048;28;20035;-73
2023/07/07 02:50:21;;;;;;;5.43;2.60;;;;;;;12.88;89.65;101653.78;4990876;28;20501;-73
2023/07/07 02:52:47;;;;;;;4.00;2.45;;;;;;;12.91;89.68;101656.09;4986470;28;20310;-72
2023/07/07 02:55:12;;;;;;;12.25;4.20;;;;;;;12.92;89.54;101652.56;5007070;28;20103;-73
2023/07/07 02:57:38;;;;;;;5.53;2.80;;;;;;;12.91;89.72;101658.72;4991988;28;20458;-71
2023/07/07 03:00:08;;;;;;;4.00;2.45;;;;;;;12.90;89.76;101651.84;5006039;28;20096;-74
2023/07/07 03:02:34;;;;;;;3.58;2.35;;;;;;;12.95;89.55;101657.44;5006125;28;20056;-71
2023/07/07 03:04:59;;;;;;;6.57;2.90;;;;;;;13.00;89.46;101657.00;5007129;28;20123;-73
2023/07/07 03:07:25;;;;;;;4.40;2.47;;;;;;;13.03;89.36;101661.88;5006164;28;20492;-72
2023/07/07 03:09:52;;;;;;;5.68;2.72;;;;;;;13.01;89.04;101659.44;5009147;28;20103;-73
2023/07/07 03:12:18;;;;;;;5.53;2.55;;;;;;;13.02;88.90;101660.28;4991147;28;20022;-73
2023/07/07 03:14:43;;;;;;;4.53;2.72;;;;;;;12.97;89.08;101671.13;5021369;28;20123;-73
2023/07/07 03:17:09;;;;;;;7.00;2.72;;;;;;;12.94;89.24;101673.19;5005283;28;20505;-73
2023/07/07 03:19:42;;;;;;;5.35;2.80;;;;;;;12.88;89.53;101664.22;5005092;28;20513;-73
2023/07/07 03:22:14;;;;;;;4.40;2.40;;;;;;;12.85;89.91;101661.91;5010062;28;20030;-73
2023/07/07 03:25:06;;;;;;;6.03;2.20;;;;;;;12.80;90.15;101667.56;4999358;28;20137;-71
2023/07/07 03:27:40;;;;;;;5.72;2.70;;;;;;;12.75;90.41;101668.97;5005207;28;20021;-73
2023/07/07 03:30:10;;;;;;;4.65;2.90;;;;;;;12.69;90.77;101670.38;4992911;28;20046;-73
2023/07/07 03:32:50;;;;;;;4.05;2.72;;;;;;;12.65;90.95;101669.88;5001594;28;20025;-73
2023/07/07 03:35:17;;;;;;;6.45;2.72;;;;;;;12.65;90.74;101674.25;5007760;28;20041;-71
2023/07/07 03:37:42;;;;;;;4.53;2.63;;;;;;;12.69;90.46;101669.56;5007629;28;20052;-73
2023/07/07 03:40:09;;;;;;;5.95;3.05;;;;;;;12.74;90.15;101675.16;5007896;28;20041;-73
2023/07/07 03:42:36;;;;;;;4.75;2.50;;;;;;;12.77;89.81;101673.09;5004325;28;20180;-72
2023/07/07 03:45:04;;;;;;;4.57;2.70;;;;;;;12.77;89.63;101677.44;5009019;28;20033;-72
2023/07/07 03:47:31;;;;;;;4.65;2.38;;;;;;;12.75;89.76;101681.97;4990571;28;20432;-72
2023/07/07 03:49:57;;;;;;;6.43;2.75;;;;;;;12.69;90.00;101686.00;4995856;28;20038;-72
2023/07/07 03:52:23;;;;;;;8.13;2.80;;;;;;;12.61;90.49;101681.53;5005897;28;20025;-73
2023/07/07 03:54:48;;;;;;;7.30;2.78;;;;;;;12.55;91.02;101692.53;4990440;28;20557;-71
2023/07/07 03:57:13;;;;;;;4.03;2.70;;;;;;;12.49;91.32;101690.53;5010320;28;20034;-72
2023/07/07 03:59:39;;;;;;;7.20;2.97;;;;;;;12.42;91.71;101687.69;4995618;28;20046;-73
2023/07/07 04:02:06;;;;;;;8.32;2.85;;;;;;;12.38;91.93;101688.94;5002258;28;20064;-72
2023/07/07 04:04:31;;;;;;;4.70;2.33;;;;;;;12.34;92.25;101691.97;5017648;28;20073;-74
2023/07/07 04:06:59;;;;;;;4.93;2.78;;;;;;;12.36;92.37;101690.06;5006139;28;20075;-72
2023/07/07 04:09:25;;;;;;;6.38;3.10;;;;;;;12.43;91.85;101688.50;5007237;28;20046;-73
2023/07/07 04:11:52;;;;;;;5.55;2.85;;;;;;;12.48;91.72;101688.88;5005513;28;20030;-73
2023/07/07 04:14:20;;;;;;;7.47;3.75;;;;;;;12.51;91.80;101687.75;5003237;28;20045;-73
2023/07/07 04:16:46;;;;;;;4.82;3.05;;;;;;;12.53;92.00;101685.88;5008352;28;20030;-74
2023/07/07 04:19:11;;;;;;;4.82;2.60;;;;;;;12.53;91.80;101686.66;5002945;28;20046;-73
2023/07/07 04:21:37;;;;;;;6.82;2.90;;;;;;;12.57;92.03;101684.59;4994810;28;20045;-73
2023/07/07 04:24:03;;;;;;;9.50;2.60;;;;;;;12.61;91.61;101689.34;5004659;28;20050;-74
2023/07/07 04:26:31;;;;;;;6.57;3.10;;;;;;;12.65;91.33;101685.47;5003406;28;20026;-73
2023/07/07 04:28:59;;;;;;;5.35;2.90;;;;;;;12.70;91.32;101686.84;5003275;28;20100;-71
2023/07/07 04:31:27;;;;;;;6.15;2.70;;;;;;;12.73;91.13;101683.91;5008343;28;20038;-73
2023/07/07 04:33:54;;;;;;;6.75;2.63;;;;;;;12.76;91.51;101688.84;5010625;28;20128;-71
2023/07/07 04:36:20;;;;;;;7.90;3.10;;;;;;;12.77;91.88;101688.69;5007755;28;20072;-72
2023/07/07 04:38:46;;;;;;;5.53;2.40;;;;;;;12.81;92.22;101691.81;5019297;28;20100;-73
2023/07/07 04:41:20;;;;;;;6.90;2.85;;;;;;;12.86;92.05;101689.56;5003061;28;20034;-73
2023/07/07 04:43:49;;;;;;;9.32;2.88;;;;;;;12.91;92.01;101687.34;5010969;28;20137;-73
2023/07/07 04:46:19;;;;;;;7.40;3.50;;;;;;;12.97;92.07;101691.94;5004576;28;20030;-74
2023/07/07 04:48:44;;;;;;;6.53;2.53;;;;;;;13.01;92.34;101687.25;5001392;28;20046;-73
2023/07/07 04:51:12;;;;;;;8.07;3.03;;;;;;;13.08;92.25;101685.69;5007553;28;20040;-74
2023/07/07 04:53:38;;;;;;;8.30;3.00;;;;;;;13.14;92.17;101685.09;5005099;28;20049;-72
2023/07/07 04:56:14;;;;;;;5.97;3.20;;;;;;;13.21;92.11;101682.72;5007931;28;20030;-72
2023/07/07 04:58:40;;;;;;;7.55;3.05;;;;;;;13.29;92.11;101687.16;5005731;28;20080;-72
2023/07/07 05:01:11;;;;;;;9.00;4.10;;;;;;;13.37;92.15;101687.22;5008618;28;20099;-70
2023/07/07 05:03:38;;;;;;;8.13;3.63;;;;;;;13.44;92.43;101696.06;5009515;28;20058;-73
2023/07/07 05:06:04;;;;;;;5.65;3.13;;;;;;;13.52;92.85;101685.69;4991045;28;20026;-70
2023/07/07 05:08:33;;;;;;;8.60;3.25;;;;;;;13.61;92.99;101689.16;4992494;28;20069;-71
2023/07/07 05:10:59;;;;;;;6.82;3.60;;;;;;;13.70;93.37;101690.84;5006130;28;20029;-73
2023/07/07 05:13:25;;;;;;;11.48;4.95;;;;;;;13.83;93.46;101693.03;5006436;28;20030;-74
2023/07/07 05:16:02;;;;;;;8.02;3.97;;;;;;;13.95;93.12;101685.75;5011884;28;20036;-72
2023/07/07 05:18:28;;;;;;;10.57;4.15;;;;;;;14.12;92.53;101684.03;5005797;28;20476;-73
2023/07/07 05:20:54;;;;;;;10.32;3.88;;;;;;;14.24;89.95;101692.38;5008253;28;20034;-73
2023/07/07 05:23:19;;;;;;;14.65;4.20;;;;;;;14.37;89.20;101690.97;4990441;28;20042;-72
2023/07/07 05:25:45;;;;;;;16.58;5.65;;;;;;;14.55;85.72;101690.03;5007530;28;20034;-73
2023/07/07 05:28:10;;;;;;;13.20;4.78;;;;;;;14.64;84.96;101691.69;5006286;28;20037;-73
2023/07/07 05:30:38;;;;;;;12.35;3.60;;;;;;;14.79;84.35;101689.28;4994477;28;20138;-75
2023/07/07 05:33:04;;;;;;;14.15;4.30;;;;;;;14.85;84.23;101693.84;5007777;28;20698;-73
2023/07/07 05:35:29;;;;;;;8.57;4.00;;;;;;;14.95;83.71;101691.06;4988082;28;20041;-70
2023/07/07 05:37:55;;;;;;;13.48;3.97;;;;;;;15.10;83.04;101694.66;4990325;28;20042;-73
2023/07/07 05:40:20;;;;;;;15.02;4.43;;;;;;;15.12;83.30;101694.47;5007804;28;20069;-71
2023/07/07 05:42:45;;;;;;;14.38;4.75;;;;;;;15.21;82.47;101695.31;5006384;28;20092;-76
2023/07/07 05:45:11;;;;;;;10.55;4.10;;;;;;;15.34;81.18;101699.03;4992441;28;20420;-74
2023/07/07 05:47:36;;;;;;;9.68;3.97;;;;;;;15.54;80.77;101698.69;5005318;28;20042;-75
2023/07/07 05:50:02;;;;;;;9.32;3.40;;;;;;;15.64;79.81;101703.72;5010112;28;20056;-73
2023/07/07 05:52:27;;;;;;;8.18;3.42;;;;;;;15.85;77.80;101693.56;5005890;28;20041;-74
2023/07/07 05:54:53;;;;;;;10.05;3.72;;;;;;;16.06;76.29;101700.81;5009332;28;20045;-75
2023/07/07 05:57:18;;;;;;;12.50;3.90;;;;;;;16.22;74.88;101697.34;5008871;28;20033;-74
2023/07/07 05:59:44;;;;;;;7.82;3.13;;;;;;;16.37;75.11;101692.19;5009679;28;20543;-74
2023/07/07 06:02:10;;;;;;;11.52;3.50;;;;;;;16.44;74.07;101690.47;4989756;28;20026;-75
2023/07/07 06:04:36;;;;;;;11.18;3.58;;;;;;;16.53;73.84;101689.44;5009737;28;20505;-74
2023/07/07 06:07:02;;;;;;;7.13;2.67;;;;;;;16.69;73.32;101687.72;5011294;28;20038;-74
2023/07/07 06:09:27;;;;;;;6.68;2.88;;;;;;;16.95;72.91;101686.56;5004650;28;20374;-75
2023/07/07 06:11:53;;;;;;;8.80;3.05;;;;;;;17.26;72.89;101689.88;5011039;28;20033;-74
2023/07/07 06:14:18;;;;;;;6.82;2.70;;;;;;;17.45;70.56;101685.94;5009081;28;20038;-71
2023/07/07 06:16:43;;;;;;;7.72;2.90;;;;;;;17.74;69.56;101692.16;5014508;28;20049;-73
2023/07/07 06:19:09;;;;;;;6.28;2.45;;;;;;;17.90;67.96;101693.81;4992350;28;20104;-75
2023/07/07 06:21:34;;;;;;;4.53;2.50;;;;;;;18.01;67.78;101695.19;5005798;28;20038;-73
2023/07/07 06:24:00;;;;;;;6.68;2.38;;;;;;;18.24;67.29;101698.47;4992068;28;20584;-74
2023/07/07 06:26:25;;;;;;;6.32;2.03;;;;;;;18.38;65.99;101688.09;5010076;28;20412;-76
2023/07/07 06:28:51;;;;;;;7.70;2.88;;;;;;;18.52;65.10;101694.31;5003784;28;20104;-75
2023/07/07 06:31:17;;;;;;;7.80;2.35;;;;;;;18.70;65.01;101693.88;5009554;28;20050;-75
2023/07/07 06:33:42;;;;;;;7.60;2.50;;;;;;;18.87;64.79;101692.63;4996084;28;20052;-74
2023/07/07 06:36:08;;;;;;;7.63;2.45;;;;;;;19.11;63.90;101699.28;5007910;28;20044;-76
2023/07/07 06:38:33;;;;;;;6.38;2.40;;;;;;;19.14;61.99;101693.66;4993422;28;20041;-75
2023/07/07 06:40:59;;;;;;;3.90;2.00;;;;;;;19.21;62.25;101704.22;5013736;28;20037;-74
2023/07/07 06:43:24;;;;;;;6.88;2.55;;;;;;;19.26;62.52;101700.00;5020457;28;20034;-74
2023/07/07 06:45:56;;;;;;;5.53;2.17;;;;;;;19.64;62.38;101704.09;5007111;28;20025;-73
2023/07/07 06:48:21;;;;;;;4.50;1.90;;;;;;;19.98;61.13;101702.44;5008336;28;20519;-73
2023/07/07 06:50:47;;;;;;;5.90;2.13;;;;;;;20.41;59.73;101695.09;5011896;28;20061;-75
2023/07/07 06:53:14;;;;;;;5.90;2.28;;;;;;;20.57;58.01;101698.38;5014755;28;20033;-75
2023/07/07 06:55:40;;;;;;;5.22;2.15;;;;;;;20.70;56.47;101697.59;5006392;28;20109;-75
2023/07/07 06:58:07;;;;;;;3.65;1.88;;;;;;;20.89;56.39;101696.81;5013063;28;20588;-73
2023/07/07 07:00:32;;;;;;;13.73;2.97;;;;;;;21.21;54.85;101683.81;5009038;28;20049;-74
2023/07/07 07:02:58;;;;;;;4.68;1.67;;;;;;;21.62;53.99;101697.72;4990215;28;20033;-75
2023/07/07 07:05:24;;;;;;;5.78;2.10;;;;;;;21.76;52.90;101696.69;5012088;28;20040;-74
2023/07/07 07:07:49;;;;;;;3.80;2.05;;;;;;;21.82;51.21;101689.75;5009137;28;20108;-76
2023/07/07 07:10:15;;;;;;;5.45;1.70;;;;;;;22.06;51.42;101706.72;5003615;28;20057;-76
2023/07/07 07:12:40;;;;;;;4.82;2.08;;;;;;;22.45;49.96;101700.44;5010666;28;20036;-75
2023/07/07 07:15:07;;;;;;;4.22;2.13;;;;;;;22.44;49.39;101705.91;5012575;28;20045;-76
2023/07/07 07:17:33;;;;;;;4.25;1.85;;;;;;;23.01;49.65;101705.88;5007117;28;20053;-74
2023/07/07 07:20:00;;;;;;;7.10;2.03;;;;;;;23.37;48.87;101699.06;5009824;28;20436;-75
2023/07/07 07:22:25;;;;;;;3.88;1.90;;;;;;;23.76;47.39;101695.16;5011550;28;20448;-75
2023/07/07 07:24:51;;;;;;;3.30;1.77;;;;;;;24.25;47.40;101688.03;5006428;28;20046;-73
2023/07/07 07:27:16;;;;;;;4.75;1.83;;;;;;;24.06;46.11;101695.22;5011226;28;20029;-76
2023/07/07 07:29:43;;;;;;;3.75;1.52;;;;;;;24.19;45.93;101704.81;5008169;28;20088;-75
2023/07/07 07:32:09;;;;;;;6.55;1.90;;;;;;;24.57;45.55;101689.63;5006422;28;20037;-75
2023/07/07 07:34:35;;;;;;;4.47;2.00;;;;;;;24.74;45.17;101700.38;5017473;28;20042;-74
2023/07/07 07:37:01;;;;;;;5.60;1.80;;;;;;;25.16;44.02;101695.75;5009285;28;20087;-76
2023/07/07 07:39:28;;;;;;;6.00;1.65;;;;;;;25.02;43.44;101702.34;5008831;28;20099;-76
2023/07/07 07:41:54;;;;;;;6.32;1.85;;;;;;;24.95;44.32;101701.66;5007872;28;20664;-74
2023/07/07 07:44:22;;;;;;;3.90;1.75;;;;;;;25.01;42.81;101695.41;5004621;28;20107;-75
2023/07/07 07:46:49;;;;;;;2.42;1.50;;;;;;;25.25;43.48;101704.22;5006942;28;20436;-76
2023/07/07 07:49:15;;;;;;;9.35;1.92;;;;;;;25.41;42.65;101697.38;5008491;28;20030;-76
2023/07/07 07:51:41;;;;;;;3.72;1.77;;;;;;;25.68;41.89;101694.22;5009701;28;20045;-75
2023/07/07 07:54:09;;;;;;;5.82;1.98;;;;;;;26.09;41.67;101701.13;5023306;28;20058;-74
2023/07/07 07:56:35;;;;;;;5.07;1.55;;;;;;;25.86;40.88;101698.53;5006585;28;20045;-76
2023/07/07 07:59:01;;;;;;;4.45;1.77;;;;;;;26.03;40.60;101694.09;5008839;28;20053;-75
2023/07/07 08:01:26;;;;;;;8.23;1.75;;;;;;;26.20;40.71;101691.47;5008798;28;20037;-75
2023/07/07 08:03:52;;;;;;;5.05;1.55;;;;;;;26.49;40.45;101686.13;5008729;28;20048;-76
2023/07/07 08:06:18;;;;;;;5.55;2.00;;;;;;;27.03;39.91;101688.28;5019795;28;20038;-75
2023/07/07 08:08:43;;;;;;;3.60;1.70;;;;;;;27.27;38.43;101699.53;5006368;28;20042;-76
2023/07/07 08:11:15;;;;;;;3.97;1.60;;;;;;;27.39;38.70;101694.91;5009269;28;20378;-76
2023/07/07 08:13:40;;;;;;;3.60;1.58;;;;;;;27.04;38.13;101706.66;5002863;28;20145;-77
2023/07/07 08:16:08;;;;;;;6.93;2.00;;;;;;;27.15;38.06;101702.28;5009794;28;20170;-75
2023/07/07 08:18:34;;;;;;;4.70;1.50;;;;;;;27.48;37.64;101698.75;5002960;28;20042;-75
2023/07/07 08:20:59;;;;;;;3.60;1.83;;;;;;;27.65;37.58;101700.53;5007382;28;20030;-73
2023/07/07 08:23:24;;;;;;;3.80;1.40;;;;;;;27.78;36.50;101700.13;5005847;28;20041;-76
2023/07/07 08:25:51;;;;;;;2.88;1.70;;;;;;;27.80;36.49;101702.56;5013783;28;20041;-75
2023/07/07 08:28:17;;;;;;;3.47;1.63;;;;;;;27.78;36.60;101700.13;5003788;28;20116;-77
2023/07/07 08:30:42;;;;;;;2.72;1.55;;;;;;;27.98;36.84;101706.78;5003152;28;20172;-76
2023/07/07 08:33:08;;;;;;;3.13;1.85;;;;;;;28.13;36.26;101706.94;5010477;28;20018;-75
2023/07/07 08:35:33;;;;;;;2.70;1.50;;;;;;;28.22;35.56;101700.09;5010621;28;20576;-75
2023/07/07 08:37:59;;;;;;;6.10;1.63;;;;;;;28.45;36.07;101712.28;5008747;28;20033;-75
2023/07/07 08:40:42;;;;;;;4.95;1.67;;;;;;;28.80;35.43;101705.66;5002122;28;20060;-75
2023/07/07 08:43:10;;;;;;;4.13;1.30;;;;;;;29.11;34.77;101703.16;5004619;28;20065;-76
2023/07/07 08:45:35;;;;;;;5.63;2.17;;;;;;;28.95;34.39;101709.47;5007142;28;20107;-76
2023/07/07 08:48:11;;;;;;;7.18;1.60;;;;;;;28.78;35.10;101702.41;5008210;28;20033;-76
2023/07/07 08:50:42;;;;;;;5.82;1.65;;;;;;;28.72;34.87;101703.44;5004672;28;20054;-76
2023/07/07 08:53:19;;;;;;;2.92;1.63;;;;;;;28.84;34.88;101695.22;5018317;28;20038;-75
2023/07/07 08:55:53;;;;;;;3.88;1.50;;;;;;;29.30;34.73;101690.97;5005575;28;20083;-74
2023/07/07 08:58:58;;;;;;;3.63;1.30;;;;;;;29.54;33.92;101693.22;5010906;28;20022;-73
2023/07/07 09:01:41;;;;;;;4.68;1.27;;;;;;;29.22;32.75;101688.03;5012316;28;20461;-77
2023/07/07 09:04:22;;;;;;;6.72;1.67;;;;;;;29.65;32.39;101696.72;5007073;28;20041;-75
2023/07/07 09:07:11;;;;;;;5.00;1.73;;;;;;;29.74;33.12;101687.13;4990551;28;20061;-76
2023/07/07 09:10:05;;;;;;;2.50;1.27;;;;;;;30.12;33.07;101686.94;4997251;28;20061;-74
2023/07/07 09:12:36;;;;;;;2.95;2.17;;;;;;;30.42;32.48;101686.16;4991605;28;20021;-74
2023/07/07 09:15:07;;;;;;;3.90;1.67;;;;;;;30.68;31.37;101684.25;5009905;28;20100;-76
2023/07/07 09:17:40;;;;;;;6.57;1.42;;;;;;;30.67;31.11;101680.78;5010450;28;20496;-74
2023/07/07 09:20:08;;;;;;;3.95;1.58;;;;;;;30.56;30.75;101684.56;5020915;28;20049;-77
2023/07/07 09:22:40;;;;;;;5.05;2.15;;;;;;;30.69;30.82;101685.09;5005024;28;20065;-77
2023/07/07 09:25:20;;;;;;;4.50;1.50;;;;;;;30.60;30.53;101676.78;5020964;28;20089;-76
2023/07/07 09:28:03;;;;;;;2.22;1.40;;;;;;;30.37;31.43;101678.97;5027554;28;20056;-74
2023/07/07 09:30:50;;;;;;;2.85;1.80;;;;;;;30.78;30.61;101681.59;4984557;28;20497;-73
2023/07/07 09:33:19;;;;;;;3.13;1.40;;;;;;;30.84;30.42;101679.69;4989671;28;20038;-75
2023/07/07 09:35:50;;;;;;;2.22;1.25;;;;;;;30.93;30.98;101677.28;5007064;28;20026;-74
2023/07/07 09:39:03;;;;;;;2.80;1.40;;;;;;;31.03;30.76;101678.06;5016578;28;20045;-75
2023/07/07 09:41:47;;;;;;;3.85;1.25;;;;;;;31.03;30.49;101669.22;4987991;28;20526;-75
2023/07/07 09:44:32;;;;;;;2.95;1.40;;;;;;;31.07;30.04;101672.94;5004807;28;20056;-75
2023/07/07 09:47:33;;;;;;;4.68;1.77;;;;;;;30.70;30.81;101671.41;4996490;28;20713;-76
2023/07/07 09:50:15;;;;;;;5.05;1.42;;;;;;;31.20;28.98;101669.69;5005044;28;20061;-76
2023/07/07 09:52:48;;;;;;;6.25;1.83;;;;;;;30.88;27.54;101669.25;5009313;28;20026;-74
2023/07/07 09:55:19;;;;;;;3.55;1.55;;;;;;;31.03;28.59;101659.31;5008966;28;20546;-76
2023/07/07 09:57:56;;;;;;;4.55;1.88;;;;;;;31.04;28.55;101663.59;5008063;28;20037;-76
2023/07/07 10:00:24;;;;;;;3.03;1.40;;;;;;;30.70;28.02;101660.72;5006760;28;20041;-77
2023/07/07 10:02:51;;;;;;;2.67;1.48;;;;;;;30.75;29.57;101659.91;4991586;28;20092;-76
2023/07/07 10:05:30;;;;;;;4.43;1.52;;;;;;;30.92;28.71;101659.63;5014265;28;20034;-75
2023/07/07 10:07:58;;;;;;;6.38;1.65;;;;;;;30.85;27.59;101655.34;5006013;28;20038;-76
2023/07/07 10:10:24;;;;;;;3.13;1.70;;;;;;;30.88;27.04;101656.66;5008998;28;20037;-79
2023/07/07 10:12:49;;;;;;;3.05;1.73;;;;;;;30.81;28.74;101656.94;5007244;28;20374;-76
2023/07/07 10:15:27;;;;;;;5.13;2.25;;;;;;;31.07;27.25;101651.53;4988766;28;20518;-76
2023/07/07 10:18:13;;;;;;;2.70;1.30;;;;;;;30.99;27.90;101652.91;4994274;28;20022;-77
2023/07/07 10:20:39;;;;;;;4.25;2.03;;;;;;;30.81;26.40;101656.94;5009360;28;20127;-76
2023/07/07 10:23:10;;;;;;;3.90;1.70;;;;;;;30.95;27.32;101651.03;5007830;28;20108;-75
2023/07/07 10:25:35;;;;;;;3.45;1.38;;;;;;;31.16;27.23;101644.53;5007993;28;21029;-77
2023/07/07 10:28:01;;;;;;;3.97;1.58;;;;;;;31.24;28.00;101649.31;5008797;28;20056;-74
2023/07/07 10:30:27;;;;;;;5.05;2.17;;;;;;;31.12;26.27;101651.53;4992250;28;20569;-74
2023/07/07 10:32:53;;;;;;;2.42;1.95;;;;;;;31.23;25.96;101653.06;4993707;28;20030;-79
2023/07/07 10:35:20;;;;;;;4.22;1.75;;;;;;;31.10;25.81;101656.34;5008829;28;20685;-77
2023/07/07 10:37:46;;;;;;;5.15;2.63;;;;;;;31.27;26.19;101641.78;5013092;28;20029;-75
2023/07/07 10:40:15;;;;;;;4.18;2.08;;;;;;;31.34;25.98;101642.31;5009785;28;20049;-74
2023/07/07 10:42:40;;;;;;;3.35;1.90;;;;;;;31.53;26.49;101640.63;5009244;28;20484;-76
2023/07/07 10:45:07;;;;;;;7.25;2.08;;;;;;;31.71;26.17;101635.69;5010382;28;20100;-76
2023/07/07 10:47:37;;;;;;;12.85;2.08;;;;;;;31.87;26.19;101636.38;5011115;28;20094;-77
2023/07/07 10:50:10;;;;;;;2.97;2.22;;;;;;;31.68;25.02;101638.91;5009503;28;20117;-78
2023/07/07 10:53:05;;;;;;;4.82;1.92;;;;;;;30.94;25.70;101646.75;5008135;28;20049;-77
2023/07/07 10:55:43;;;;;;;4.95;2.15;;;;;;;31.17;25.47;101638.09;5006363;28;20049;-78
2023/07/07 10:58:27;;;;;;;6.03;2.28;;;;;;;31.36;24.98;101642.81;4994852;28;20136;-76
2023/07/07 11:01:01;;;;;;;6.88;2.25;;;;;;;31.12;24.72;101648.84;5005736;28;20085;-76
2023/07/07 11:03:44;;;;;;;4.70;1.92;;;;;;;31.03;25.57;101640.56;4999341;28;20042;-76
2023/07/07 11:06:09;;;;;;;;;;;;;;;30.91;26.14;101634.75;4999617;28;20473;-77
2023/07/07 11:08:37;;;;;;;4.30;1.70;;;;;;;30.76;26.22;101637.41;5004965;28;20012;-78
2023/07/07 11:11:39;;;;;;;4.40;1.95;;;;;;;30.96;26.43;101631.22;5012991;28;20053;-81
2023/07/07 11:14:23;;;;;;;4.65;2.10;;;;;;;30.61;25.09;101632.91;5006113;28;20038;-77
2023/07/07 11:17:24;;;;;;;11.40;1.90;;;;;;;30.84;25.36;101623.50;4991439;28;20038;-76
2023/07/07 11:20:27;;;;;;;3.22;1.95;;;;;;;31.10;26.01;101626.06;5010973;28;20033;-77
2023/07/07 11:23:11;;;;;;;4.07;2.00;;;;;;;31.20;25.89;101626.84;5011181;28;20045;-78
2023/07/07 11:26:09;;;;;;;4.55;2.00;;;;;;;31.49;25.57;101628.84;5003168;28;20119;-76
2023/07/07 11:28:46;;;;;;;4.22;2.08;;;;;;;31.47;24.48;101608.78;5009110;28;20084;-79
2023/07/07 11:31:28;;;;;;;3.33;2.03;;;;;;;31.30;25.01;101614.47;5009412;28;20044;-75
2023/07/07 11:34:06;;;;;;;5.80;2.30;;;;;;;31.12;23.79;101614.03;5011289;28;20037;-77
2023/07/07 11:36:49;;;;;;;4.30;2.10;;;;;;;31.27;24.47;101615.00;4987650;28;20413;-76